sensor_id;sensor_type;location;lat;lon;timestamp;P1;durP1;ratioP1;P2;durP2;ratioP2
12848;SDS011;6493;50.928;7.172;2023-11-21T00:00:17;1.43;;;0.90;;
12848;SDS011;6493;50.928;7.172;2023-11-21T00:05:21;1.50;;;1.20;;
12848;SDS011;6493;50.928;7.172;2023-11-21T00:10:26;1.13;;;0.97;;
12848;SDS011;6493;50.928;7.172;2023-11-21T00:15:30;0.87;;;0.80;;
12848;SDS011;6493;50.928;7.172;2023-11-21T00:20:34;0.70;;;0.70;;
12848;SDS011;6493;50.928;7.172;2023-11-21T00:25:39;0.90;;;0.80;;
12848;SDS011;6493;50.928;7.172;2023-11-21T00:30:42;1.00;;;0.90;;
12848;SDS011;6493;50.928;7.172;2023-11-21T00:35:46;1.07;;;0.90;;
12848;SDS011;6493;50.928;7.172;2023-11-21T00:40:51;1.00;;;0.73;;
12848;SDS011;6493;50.928;7.172;2023-11-21T00:45:57;0.83;;;0.70;;
12848;SDS011;6493;50.928;7.172;2023-11-21T00:51:01;0.80;;;0.80;;
12848;SDS011;6493;50.928;7.172;2023-11-21T00:56:07;0.70;;;0.70;;
12848;SDS011;6493;50.928;7.172;2023-11-21T01:01:11;1.00;;;0.90;;
12848;SDS011;6493;50.928;7.172;2023-11-21T01:06:15;2.10;;;1.00;;
12848;SDS011;6493;50.928;7.172;2023-11-21T01:11:20;1.20;;;1.10;;
12848;SDS011;6493;50.928;7.172;2023-11-21T01:16:25;0.97;;;0.97;;
12848;SDS011;6493;50.928;7.172;2023-11-21T01:21:31;0.97;;;0.93;;
12848;SDS011;6493;50.928;7.172;2023-11-21T01:26:37;0.83;;;0.70;;
12848;SDS011;6493;50.928;7.172;2023-11-21T01:31:41;0.77;;;0.73;;
12848;SDS011;6493;50.928;7.172;2023-11-21T01:36:45;0.90;;;0.73;;
12848;SDS011;6493;50.928;7.172;2023-11-21T01:41:50;0.80;;;0.80;;
12848;SDS011;6493;50.928;7.172;2023-11-21T01:46:54;1.10;;;0.77;;
12848;SDS011;6493;50.928;7.172;2023-11-21T01:51:59;0.60;;;0.60;;
12848;SDS011;6493;50.928;7.172;2023-11-21T01:57:04;1.17;;;0.87;;
12848;SDS011;6493;50.928;7.172;2023-11-21T02:02:08;0.70;;;0.70;;
12848;SDS011;6493;50.928;7.172;2023-11-21T02:07:13;0.73;;;0.63;;
12848;SDS011;6493;50.928;7.172;2023-11-21T02:12:18;0.87;;;0.53;;
12848;SDS011;6493;50.928;7.172;2023-11-21T02:17:21;0.80;;;0.73;;
12848;SDS011;6493;50.928;7.172;2023-11-21T02:22:26;1.10;;;0.70;;
12848;SDS011;6493;50.928;7.172;2023-11-21T02:27:36;1.20;;;0.70;;
12848;SDS011;6493;50.928;7.172;2023-11-21T02:32:40;0.53;;;0.53;;
12848;SDS011;6493;50.928;7.172;2023-11-21T02:37:50;0.93;;;0.60;;
12848;SDS011;6493;50.928;7.172;2023-11-21T02:42:55;1.03;;;0.73;;
12848;SDS011;6493;50.928;7.172;2023-11-21T02:48:01;0.67;;;0.67;;
12848;SDS011;6493;50.928;7.172;2023-11-21T02:53:05;0.63;;;0.60;;
12848;SDS011;6493;50.928;7.172;2023-11-21T02:58:11;0.90;;;0.83;;
12848;SDS011;6493;50.928;7.172;2023-11-21T03:03:15;0.97;;;0.87;;
12848;SDS011;6493;50.928;7.172;2023-11-21T03:08:19;0.70;;;0.70;;
12848;SDS011;6493;50.928;7.172;2023-11-21T03:13:24;0.80;;;0.77;;
12848;SDS011;6493;50.928;7.172;2023-11-21T03:18:27;1.23;;;0.60;;
12848;SDS011;6493;50.928;7.172;2023-11-21T03:23:32;2.03;;;0.83;;
12848;SDS011;6493;50.928;7.172;2023-11-21T03:28:37;0.70;;;0.70;;
12848;SDS011;6493;50.928;7.172;2023-11-21T03:33:41;1.10;;;0.80;;
12848;SDS011;6493;50.928;7.172;2023-11-21T03:38:44;1.20;;;1.10;;
12848;SDS011;6493;50.928;7.172;2023-11-21T03:43:49;1.17;;;0.90;;
12848;SDS011;6493;50.928;7.172;2023-11-21T03:48:53;0.90;;;0.90;;
12848;SDS011;6493;50.928;7.172;2023-11-21T03:53:57;1.07;;;1.00;;
12848;SDS011;6493;50.928;7.172;2023-11-21T03:59:02;1.80;;;1.37;;
12848;SDS011;6493;50.928;7.172;2023-11-21T04:04:06;1.53;;;1.40;;
12848;SDS011;6493;50.928;7.172;2023-11-21T04:09:10;1.57;;;1.30;;
12848;SDS011;6493;50.928;7.172;2023-11-21T04:14:15;2.27;;;1.50;;
12848;SDS011;6493;50.928;7.172;2023-11-21T04:19:19;1.50;;;1.40;;
12848;SDS011;6493;50.928;7.172;2023-11-21T04:24:23;1.37;;;1.27;;
12848;SDS011;6493;50.928;7.172;2023-11-21T04:29:29;1.60;;;1.50;;
12848;SDS011;6493;50.928;7.172;2023-11-21T04:34:32;2.13;;;1.60;;
12848;SDS011;6493;50.928;7.172;2023-11-21T04:39:36;1.60;;;1.50;;
12848;SDS011;6493;50.928;7.172;2023-11-21T04:44:41;1.80;;;1.50;;
12848;SDS011;6493;50.928;7.172;2023-11-21T04:49:46;1.93;;;1.47;;
12848;SDS011;6493;50.928;7.172;2023-11-21T04:54:50;2.00;;;1.80;;
12848;SDS011;6493;50.928;7.172;2023-11-21T04:59:57;2.00;;;1.53;;
12848;SDS011;6493;50.928;7.172;2023-11-21T05:05:01;2.10;;;1.67;;
12848;SDS011;6493;50.928;7.172;2023-11-21T05:10:08;2.00;;;1.80;;
12848;SDS011;6493;50.928;7.172;2023-11-21T05:15:15;2.20;;;1.50;;
12848;SDS011;6493;50.928;7.172;2023-11-21T05:20:19;2.27;;;1.73;;
12848;SDS011;6493;50.928;7.172;2023-11-21T05:25:23;2.93;;;1.90;;
12848;SDS011;6493;50.928;7.172;2023-11-21T05:30:28;2.53;;;1.80;;
12848;SDS011;6493;50.928;7.172;2023-11-21T05:35:32;2.73;;;1.87;;
12848;SDS011;6493;50.928;7.172;2023-11-21T05:40:36;2.63;;;2.00;;
12848;SDS011;6493;50.928;7.172;2023-11-21T05:45:41;2.17;;;1.73;;
12848;SDS011;6493;50.928;7.172;2023-11-21T05:50:44;2.00;;;1.70;;
12848;SDS011;6493;50.928;7.172;2023-11-21T05:55:48;3.00;;;2.00;;
12848;SDS011;6493;50.928;7.172;2023-11-21T06:00:54;1.57;;;1.43;;
12848;SDS011;6493;50.928;7.172;2023-11-21T06:05:57;2.00;;;1.80;;
12848;SDS011;6493;50.928;7.172;2023-11-21T06:11:01;2.50;;;2.30;;
12848;SDS011;6493;50.928;7.172;2023-11-21T06:16:06;2.30;;;1.97;;
12848;SDS011;6493;50.928;7.172;2023-11-21T06:21:11;2.30;;;2.10;;
12848;SDS011;6493;50.928;7.172;2023-11-21T06:26:15;2.30;;;2.10;;
12848;SDS011;6493;50.928;7.172;2023-11-21T06:31:20;3.07;;;2.20;;
12848;SDS011;6493;50.928;7.172;2023-11-21T06:36:24;2.30;;;1.87;;
12848;SDS011;6493;50.928;7.172;2023-11-21T06:41:29;3.30;;;2.00;;
12848;SDS011;6493;50.928;7.172;2023-11-21T06:46:34;3.43;;;2.43;;
12848;SDS011;6493;50.928;7.172;2023-11-21T06:51:37;3.20;;;2.10;;
12848;SDS011;6493;50.928;7.172;2023-11-21T06:56:41;2.80;;;2.10;;
12848;SDS011;6493;50.928;7.172;2023-11-21T07:01:46;2.70;;;2.00;;
12848;SDS011;6493;50.928;7.172;2023-11-21T07:06:49;2.20;;;1.93;;
12848;SDS011;6493;50.928;7.172;2023-11-21T07:11:53;2.10;;;1.80;;
12848;SDS011;6493;50.928;7.172;2023-11-21T07:16:58;2.40;;;2.20;;
12848;SDS011;6493;50.928;7.172;2023-11-21T07:22:02;3.93;;;2.43;;
12848;SDS011;6493;50.928;7.172;2023-11-21T07:27:07;2.67;;;2.23;;
12848;SDS011;6493;50.928;7.172;2023-11-21T07:32:12;2.10;;;1.90;;
12848;SDS011;6493;50.928;7.172;2023-11-21T07:37:16;2.70;;;2.20;;
12848;SDS011;6493;50.928;7.172;2023-11-21T07:42:21;3.00;;;2.63;;
12848;SDS011;6493;50.928;7.172;2023-11-21T07:47:28;3.63;;;2.20;;
12848;SDS011;6493;50.928;7.172;2023-11-21T07:52:31;2.83;;;2.07;;
12848;SDS011;6493;50.928;7.172;2023-11-21T07:57:35;3.77;;;2.27;;
12848;SDS011;6493;50.928;7.172;2023-11-21T08:02:40;3.90;;;2.60;;
12848;SDS011;6493;50.928;7.172;2023-11-21T08:07:48;3.37;;;2.37;;
12848;SDS011;6493;50.928;7.172;2023-11-21T08:12:51;2.63;;;2.37;;
12848;SDS011;6493;50.928;7.172;2023-11-21T08:17:56;2.83;;;2.33;;
12848;SDS011;6493;50.928;7.172;2023-11-21T08:23:00;3.30;;;2.20;;
12848;SDS011;6493;50.928;7.172;2023-11-21T08:28:04;3.47;;;2.27;;
12848;SDS011;6493;50.928;7.172;2023-11-21T08:33:09;3.03;;;2.50;;
12848;SDS011;6493;50.928;7.172;2023-11-21T08:38:14;3.87;;;2.97;;
12848;SDS011;6493;50.928;7.172;2023-11-21T08:43:17;3.63;;;2.60;;
12848;SDS011;6493;50.928;7.172;2023-11-21T08:48:23;3.80;;;2.40;;
12848;SDS011;6493;50.928;7.172;2023-11-21T08:53:27;3.27;;;2.90;;
12848;SDS011;6493;50.928;7.172;2023-11-21T08:58:30;3.70;;;2.90;;
12848;SDS011;6493;50.928;7.172;2023-11-21T09:03:36;3.13;;;2.83;;
12848;SDS011;6493;50.928;7.172;2023-11-21T09:08:40;4.57;;;2.90;;
12848;SDS011;6493;50.928;7.172;2023-11-21T09:13:45;4.20;;;3.53;;
12848;SDS011;6493;50.928;7.172;2023-11-21T09:18:51;4.23;;;3.43;;
12848;SDS011;6493;50.928;7.172;2023-11-21T09:23:54;4.07;;;2.93;;
12848;SDS011;6493;50.928;7.172;2023-11-21T09:28:58;4.07;;;3.13;;
12848;SDS011;6493;50.928;7.172;2023-11-21T09:34:03;3.70;;;2.97;;
12848;SDS011;6493;50.928;7.172;2023-11-21T09:39:08;4.77;;;3.27;;
12848;SDS011;6493;50.928;7.172;2023-11-21T09:44:13;4.07;;;3.13;;
12848;SDS011;6493;50.928;7.172;2023-11-21T09:49:22;4.63;;;3.00;;
12848;SDS011;6493;50.928;7.172;2023-11-21T09:54:28;4.97;;;3.50;;
12848;SDS011;6493;50.928;7.172;2023-11-21T09:59:33;4.43;;;2.90;;
12848;SDS011;6493;50.928;7.172;2023-11-21T10:04:40;4.57;;;2.73;;
12848;SDS011;6493;50.928;7.172;2023-11-21T10:09:44;6.57;;;3.70;;
12848;SDS011;6493;50.928;7.172;2023-11-21T10:14:48;4.47;;;3.33;;
12848;SDS011;6493;50.928;7.172;2023-11-21T10:19:56;4.37;;;3.13;;
12848;SDS011;6493;50.928;7.172;2023-11-21T10:25:00;4.30;;;3.20;;
12848;SDS011;6493;50.928;7.172;2023-11-21T10:30:04;4.03;;;3.57;;
12848;SDS011;6493;50.928;7.172;2023-11-21T10:35:11;4.10;;;2.97;;
12848;SDS011;6493;50.928;7.172;2023-11-21T10:40:14;4.20;;;3.00;;
12848;SDS011;6493;50.928;7.172;2023-11-21T10:45:18;4.20;;;3.03;;
12848;SDS011;6493;50.928;7.172;2023-11-21T10:50:25;4.60;;;3.37;;
12848;SDS011;6493;50.928;7.172;2023-11-21T10:55:29;4.07;;;3.00;;
12848;SDS011;6493;50.928;7.172;2023-11-21T11:00:33;4.90;;;3.07;;
12848;SDS011;6493;50.928;7.172;2023-11-21T11:05:38;3.87;;;3.20;;
12848;SDS011;6493;50.928;7.172;2023-11-21T11:10:49;4.50;;;3.20;;
12848;SDS011;6493;50.928;7.172;2023-11-21T11:15:56;5.13;;;3.47;;
12848;SDS011;6493;50.928;7.172;2023-11-21T11:21:07;5.47;;;3.80;;
12848;SDS011;6493;50.928;7.172;2023-11-21T11:26:24;4.00;;;3.37;;
12848;SDS011;6493;50.928;7.172;2023-11-21T11:31:42;4.50;;;3.37;;
12848;SDS011;6493;50.928;7.172;2023-11-21T11:36:59;6.10;;;3.93;;
12848;SDS011;6493;50.928;7.172;2023-11-21T11:42:07;5.00;;;4.17;;
12848;SDS011;6493;50.928;7.172;2023-11-21T11:47:13;5.97;;;3.60;;
12848;SDS011;6493;50.928;7.172;2023-11-21T11:52:32;6.93;;;3.73;;
12848;SDS011;6493;50.928;7.172;2023-11-21T11:57:37;4.90;;;3.63;;
12848;SDS011;6493;50.928;7.172;2023-11-21T12:02:42;4.33;;;3.53;;
12848;SDS011;6493;50.928;7.172;2023-11-21T12:07:51;4.90;;;3.33;;
12848;SDS011;6493;50.928;7.172;2023-11-21T12:12:56;4.33;;;3.43;;
12848;SDS011;6493;50.928;7.172;2023-11-21T12:18:01;4.33;;;3.43;;
12848;SDS011;6493;50.928;7.172;2023-11-21T12:23:07;4.30;;;3.47;;
12848;SDS011;6493;50.928;7.172;2023-11-21T12:28:12;4.33;;;3.53;;
12848;SDS011;6493;50.928;7.172;2023-11-21T12:33:16;5.10;;;4.13;;
12848;SDS011;6493;50.928;7.172;2023-11-21T12:38:21;4.53;;;3.47;;
12848;SDS011;6493;50.928;7.172;2023-11-21T12:43:26;4.67;;;3.47;;
12848;SDS011;6493;50.928;7.172;2023-11-21T12:48:33;4.50;;;3.40;;
12848;SDS011;6493;50.928;7.172;2023-11-21T12:53:38;4.53;;;3.77;;
12848;SDS011;6493;50.928;7.172;2023-11-21T12:58:44;4.43;;;3.57;;
12848;SDS011;6493;50.928;7.172;2023-11-21T13:03:50;3.53;;;3.23;;
12848;SDS011;6493;50.928;7.172;2023-11-21T13:08:55;3.93;;;3.03;;
12848;SDS011;6493;50.928;7.172;2023-11-21T13:13:59;4.17;;;3.00;;
12848;SDS011;6493;50.928;7.172;2023-11-21T13:19:03;4.27;;;3.50;;
12848;SDS011;6493;50.928;7.172;2023-11-21T13:24:08;4.20;;;3.67;;
12848;SDS011;6493;50.928;7.172;2023-11-21T13:29:12;3.30;;;2.97;;
12848;SDS011;6493;50.928;7.172;2023-11-21T13:34:18;6.33;;;3.40;;
12848;SDS011;6493;50.928;7.172;2023-11-21T13:39:31;4.57;;;3.47;;
12848;SDS011;6493;50.928;7.172;2023-11-21T13:44:34;4.17;;;3.27;;
12848;SDS011;6493;50.928;7.172;2023-11-21T13:49:40;5.33;;;3.93;;
12848;SDS011;6493;50.928;7.172;2023-11-21T13:54:45;3.33;;;2.90;;
12848;SDS011;6493;50.928;7.172;2023-11-21T13:59:49;3.67;;;2.93;;
12848;SDS011;6493;50.928;7.172;2023-11-21T14:04:53;4.43;;;3.57;;
12848;SDS011;6493;50.928;7.172;2023-11-21T14:10:02;4.50;;;3.20;;
12848;SDS011;6493;50.928;7.172;2023-11-21T14:15:07;5.33;;;3.13;;
12848;SDS011;6493;50.928;7.172;2023-11-21T14:20:12;4.50;;;2.90;;
12848;SDS011;6493;50.928;7.172;2023-11-21T14:25:20;3.53;;;3.00;;
12848;SDS011;6493;50.928;7.172;2023-11-21T14:30:24;4.53;;;3.27;;
12848;SDS011;6493;50.928;7.172;2023-11-21T14:35:29;4.93;;;3.43;;
12848;SDS011;6493;50.928;7.172;2023-11-21T14:40:35;4.70;;;3.17;;
12848;SDS011;6493;50.928;7.172;2023-11-21T14:45:39;4.70;;;3.07;;
12848;SDS011;6493;50.928;7.172;2023-11-21T14:50:43;4.83;;;3.07;;
12848;SDS011;6493;50.928;7.172;2023-11-21T14:56:16;4.97;;;3.90;;
12848;SDS011;6493;50.928;7.172;2023-11-21T15:01:30;6.33;;;3.27;;
12848;SDS011;6493;50.928;7.172;2023-11-21T15:06:46;4.60;;;3.43;;
12848;SDS011;6493;50.928;7.172;2023-11-21T15:11:51;5.13;;;3.00;;
12848;SDS011;6493;50.928;7.172;2023-11-21T15:17:01;4.03;;;3.23;;
12848;SDS011;6493;50.928;7.172;2023-11-21T15:22:05;4.10;;;3.27;;
12848;SDS011;6493;50.928;7.172;2023-11-21T15:27:11;3.93;;;3.20;;
12848;SDS011;6493;50.928;7.172;2023-11-21T15:32:15;4.83;;;3.37;;
12848;SDS011;6493;50.928;7.172;2023-11-21T15:37:19;5.20;;;3.53;;
12848;SDS011;6493;50.928;7.172;2023-11-21T15:42:24;4.13;;;3.10;;
12848;SDS011;6493;50.928;7.172;2023-11-21T15:47:28;4.60;;;3.43;;
12848;SDS011;6493;50.928;7.172;2023-11-21T15:52:32;7.13;;;3.77;;
12848;SDS011;6493;50.928;7.172;2023-11-21T15:57:37;6.37;;;3.77;;
12848;SDS011;6493;50.928;7.172;2023-11-21T16:02:40;5.87;;;3.70;;
12848;SDS011;6493;50.928;7.172;2023-11-21T16:07:46;5.03;;;3.43;;
12848;SDS011;6493;50.928;7.172;2023-11-21T16:12:51;3.40;;;2.97;;
12848;SDS011;6493;50.928;7.172;2023-11-21T16:17:55;4.07;;;3.30;;
12848;SDS011;6493;50.928;7.172;2023-11-21T16:22:59;3.93;;;3.27;;
12848;SDS011;6493;50.928;7.172;2023-11-21T16:28:05;3.93;;;3.10;;
12848;SDS011;6493;50.928;7.172;2023-11-21T16:33:08;4.53;;;3.80;;
12848;SDS011;6493;50.928;7.172;2023-11-21T16:38:13;5.30;;;3.90;;
12848;SDS011;6493;50.928;7.172;2023-11-21T16:43:19;5.57;;;4.10;;
12848;SDS011;6493;50.928;7.172;2023-11-21T16:48:23;5.10;;;3.60;;
12848;SDS011;6493;50.928;7.172;2023-11-21T16:53:26;4.60;;;3.93;;
12848;SDS011;6493;50.928;7.172;2023-11-21T16:58:31;5.47;;;3.30;;
12848;SDS011;6493;50.928;7.172;2023-11-21T17:03:35;4.50;;;3.90;;
12848;SDS011;6493;50.928;7.172;2023-11-21T17:08:39;3.87;;;3.33;;
12848;SDS011;6493;50.928;7.172;2023-11-21T17:13:45;3.77;;;3.07;;
12848;SDS011;6493;50.928;7.172;2023-11-21T17:18:49;3.50;;;3.17;;
12848;SDS011;6493;50.928;7.172;2023-11-21T17:23:53;3.33;;;3.00;;
12848;SDS011;6493;50.928;7.172;2023-11-21T17:28:58;2.67;;;2.47;;
12848;SDS011;6493;50.928;7.172;2023-11-21T17:34:03;2.50;;;2.20;;
12848;SDS011;6493;50.928;7.172;2023-11-21T17:39:06;2.50;;;2.30;;
12848;SDS011;6493;50.928;7.172;2023-11-21T17:44:13;2.13;;;1.93;;
12848;SDS011;6493;50.928;7.172;2023-11-21T17:49:17;2.20;;;2.00;;
12848;SDS011;6493;50.928;7.172;2023-11-21T17:54:21;1.77;;;1.67;;
12848;SDS011;6493;50.928;7.172;2023-11-21T17:59:26;2.50;;;2.30;;
12848;SDS011;6493;50.928;7.172;2023-11-21T18:04:30;2.57;;;2.20;;
12848;SDS011;6493;50.928;7.172;2023-11-21T18:09:36;3.10;;;2.80;;
12848;SDS011;6493;50.928;7.172;2023-11-21T18:14:42;2.70;;;2.50;;
12848;SDS011;6493;50.928;7.172;2023-11-21T18:19:50;2.30;;;2.10;;
12848;SDS011;6493;50.928;7.172;2023-11-21T18:24:56;2.73;;;2.50;;
12848;SDS011;6493;50.928;7.172;2023-11-21T18:30:01;2.37;;;2.17;;
12848;SDS011;6493;50.928;7.172;2023-11-21T18:35:07;1.80;;;1.70;;
12848;SDS011;6493;50.928;7.172;2023-11-21T18:40:12;2.27;;;2.00;;
12848;SDS011;6493;50.928;7.172;2023-11-21T18:45:19;2.07;;;1.87;;
12848;SDS011;6493;50.928;7.172;2023-11-21T18:50:22;2.13;;;1.93;;
12848;SDS011;6493;50.928;7.172;2023-11-21T18:55:26;2.00;;;1.60;;
12848;SDS011;6493;50.928;7.172;2023-11-21T19:00:31;1.90;;;1.80;;
12848;SDS011;6493;50.928;7.172;2023-11-21T19:05:35;2.07;;;1.43;;
12848;SDS011;6493;50.928;7.172;2023-11-21T19:10:39;2.03;;;1.60;;
12848;SDS011;6493;50.928;7.172;2023-11-21T19:15:45;1.73;;;1.63;;
12848;SDS011;6493;50.928;7.172;2023-11-21T19:20:48;1.73;;;1.63;;
12848;SDS011;6493;50.928;7.172;2023-11-21T19:25:52;2.33;;;1.70;;
12848;SDS011;6493;50.928;7.172;2023-11-21T19:30:57;1.70;;;1.50;;
12848;SDS011;6493;50.928;7.172;2023-11-21T19:36:01;1.40;;;1.30;;
12848;SDS011;6493;50.928;7.172;2023-11-21T19:41:11;1.47;;;1.37;;
12848;SDS011;6493;50.928;7.172;2023-11-21T19:46:17;1.60;;;1.50;;
12848;SDS011;6493;50.928;7.172;2023-11-21T19:51:21;1.50;;;1.40;;
12848;SDS011;6493;50.928;7.172;2023-11-21T19:56:24;1.67;;;1.50;;
12848;SDS011;6493;50.928;7.172;2023-11-21T20:01:29;1.70;;;1.60;;
12848;SDS011;6493;50.928;7.172;2023-11-21T20:06:36;1.87;;;1.77;;
12848;SDS011;6493;50.928;7.172;2023-11-21T20:11:53;1.87;;;1.67;;
12848;SDS011;6493;50.928;7.172;2023-11-21T20:17:01;1.17;;;1.07;;
12848;SDS011;6493;50.928;7.172;2023-11-21T20:22:06;1.40;;;1.30;;
12848;SDS011;6493;50.928;7.172;2023-11-21T20:27:10;1.30;;;1.20;;
12848;SDS011;6493;50.928;7.172;2023-11-21T20:32:15;1.50;;;1.37;;
12848;SDS011;6493;50.928;7.172;2023-11-21T20:37:25;1.20;;;1.10;;
12848;SDS011;6493;50.928;7.172;2023-11-21T20:42:28;1.70;;;1.37;;
12848;SDS011;6493;50.928;7.172;2023-11-21T20:47:34;1.20;;;1.10;;
12848;SDS011;6493;50.928;7.172;2023-11-21T20:52:38;1.30;;;1.20;;
12848;SDS011;6493;50.928;7.172;2023-11-21T20:57:43;1.90;;;1.70;;
12848;SDS011;6493;50.928;7.172;2023-11-21T21:02:49;1.80;;;1.70;;
12848;SDS011;6493;50.928;7.172;2023-11-21T21:07:54;1.50;;;1.40;;
12848;SDS011;6493;50.928;7.172;2023-11-21T21:12:59;1.30;;;1.20;;
12848;SDS011;6493;50.928;7.172;2023-11-21T21:18:04;1.30;;;1.20;;
12848;SDS011;6493;50.928;7.172;2023-11-21T21:23:09;1.60;;;1.40;;
12848;SDS011;6493;50.928;7.172;2023-11-21T21:28:12;1.13;;;1.13;;
12848;SDS011;6493;50.928;7.172;2023-11-21T21:33:18;1.57;;;1.47;;
12848;SDS011;6493;50.928;7.172;2023-11-21T21:38:21;1.30;;;1.20;;
12848;SDS011;6493;50.928;7.172;2023-11-21T21:43:25;1.53;;;1.20;;
12848;SDS011;6493;50.928;7.172;2023-11-21T21:48:30;1.30;;;1.20;;
12848;SDS011;6493;50.928;7.172;2023-11-21T21:53:34;1.67;;;0.90;;
12848;SDS011;6493;50.928;7.172;2023-11-21T21:58:38;0.80;;;0.80;;
12848;SDS011;6493;50.928;7.172;2023-11-21T22:03:43;1.07;;;0.97;;
12848;SDS011;6493;50.928;7.172;2023-11-21T22:08:47;1.00;;;0.90;;
12848;SDS011;6493;50.928;7.172;2023-11-21T22:13:51;1.20;;;0.97;;
12848;SDS011;6493;50.928;7.172;2023-11-21T22:18:56;1.00;;;1.00;;
12848;SDS011;6493;50.928;7.172;2023-11-21T22:24:00;1.00;;;1.00;;
12848;SDS011;6493;50.928;7.172;2023-11-21T22:29:23;1.10;;;1.07;;
12848;SDS011;6493;50.928;7.172;2023-11-21T22:34:29;1.07;;;1.00;;
12848;SDS011;6493;50.928;7.172;2023-11-21T22:39:32;0.80;;;0.80;;
12848;SDS011;6493;50.928;7.172;2023-11-21T22:44:36;1.20;;;1.10;;
12848;SDS011;6493;50.928;7.172;2023-11-21T22:49:41;0.80;;;0.80;;
12848;SDS011;6493;50.928;7.172;2023-11-21T22:54:45;1.20;;;1.10;;
12848;SDS011;6493;50.928;7.172;2023-11-21T22:59:48;1.20;;;1.10;;
12848;SDS011;6493;50.928;7.172;2023-11-21T23:04:54;1.33;;;1.10;;
12848;SDS011;6493;50.928;7.172;2023-11-21T23:09:58;0.80;;;0.80;;
12848;SDS011;6493;50.928;7.172;2023-11-21T23:15:02;1.00;;;0.90;;
12848;SDS011;6493;50.928;7.172;2023-11-21T23:20:07;1.17;;;1.07;;
12848;SDS011;6493;50.928;7.172;2023-11-21T23:25:12;1.10;;;0.93;;
12848;SDS011;6493;50.928;7.172;2023-11-21T23:30:17;1.17;;;1.00;;
12848;SDS011;6493;50.928;7.172;2023-11-21T23:35:22;0.70;;;0.70;;
12848;SDS011;6493;50.928;7.172;2023-11-21T23:40:27;1.10;;;1.00;;
12848;SDS011;6493;50.928;7.172;2023-11-21T23:45:30;1.20;;;1.10;;
12848;SDS011;6493;50.928;7.172;2023-11-21T23:50:36;1.93;;;1.10;;
12848;SDS011;6493;50.928;7.172;2023-11-21T23:55:40;1.20;;;1.10;;
